createdAt,value
2023-02-27T00:00:24.517Z,-1.31
2023-02-27T00:02:52.024Z,-1.30
2023-02-27T00:05:19.169Z,-1.37
2023-02-27T00:07:45.756Z,-1.40
2023-02-27T00:10:12.746Z,-1.62
2023-02-27T00:12:39.271Z,-1.66
2023-02-27T00:15:06.691Z,-1.52
2023-02-27T00:17:33.412Z,-1.36
2023-02-27T00:19:59.860Z,-1.36
2023-02-27T00:22:26.605Z,-1.34
2023-02-27T00:24:53.067Z,-1.40
2023-02-27T00:27:19.516Z,-1.48
2023-02-27T00:29:45.946Z,-1.48
2023-02-27T00:32:12.442Z,-1.46
2023-02-27T00:34:38.945Z,-1.42
2023-02-27T00:37:05.412Z,-1.38
2023-02-27T00:39:31.957Z,-1.40
2023-02-27T00:41:58.436Z,-1.38
2023-02-27T00:44:24.901Z,-1.37
2023-02-27T00:46:51.440Z,-1.36
2023-02-27T00:49:18.097Z,-1.27
2023-02-27T00:51:44.503Z,-1.35
2023-02-27T00:54:10.969Z,-1.39
2023-02-27T00:56:37.432Z,-1.45
2023-02-27T00:59:04.188Z,-1.43
2023-02-27T01:01:30.698Z,-1.42
2023-02-27T01:03:57.189Z,-1.43
2023-02-27T01:06:23.644Z,-1.47
2023-02-27T01:08:50.080Z,-1.49
2023-02-27T01:11:16.513Z,-1.48
2023-02-27T01:13:44.279Z,-1.50
2023-02-27T01:16:11.256Z,-1.45
2023-02-27T01:18:37.831Z,-1.49
2023-02-27T01:21:04.434Z,-1.48
2023-02-27T01:23:30.988Z,-1.50
2023-02-27T01:25:57.440Z,-1.48
2023-02-27T01:28:23.916Z,-1.48
2023-02-27T01:30:50.404Z,-1.55
2023-02-27T01:33:16.889Z,-1.51
2023-02-27T01:35:43.389Z,-1.52
2023-02-27T01:38:09.883Z,-1.55
2023-02-27T01:40:37.571Z,-1.50
2023-02-27T01:43:04.631Z,-1.40
2023-02-27T01:45:32.885Z,-1.42
2023-02-27T01:48:05.088Z,-1.45
2023-02-27T01:50:31.775Z,-1.40
2023-02-27T01:53:00.038Z,-1.50
2023-02-27T01:55:28.036Z,-1.48
2023-02-27T01:57:54.942Z,-1.60
2023-02-27T02:00:21.828Z,-1.60
2023-02-27T02:02:59.907Z,-1.65
2023-02-27T02:05:26.746Z,-1.70
2023-02-27T02:07:53.654Z,-1.65
2023-02-27T02:10:21.568Z,-1.62
2023-02-27T02:12:48.527Z,-1.64
2023-02-27T02:15:15.243Z,-1.66
2023-02-27T02:17:51.119Z,-1.77
2023-02-27T02:20:17.935Z,-1.79
2023-02-27T02:22:56.564Z,-1.85
2023-02-27T02:25:29.032Z,-1.81
2023-02-27T02:28:13.904Z,-1.75
2023-02-27T02:30:58.919Z,-1.70
2023-02-27T02:33:43.554Z,-1.66
2023-02-27T02:36:17.527Z,-1.73
2023-02-27T02:39:02.830Z,-1.73
2023-02-27T02:41:49.488Z,-1.78
2023-02-27T02:44:15.894Z,-1.79
2023-02-27T02:46:47.683Z,-1.75
2023-02-27T02:49:14.090Z,-1.70
2023-02-27T02:51:46.340Z,-1.76
2023-02-27T02:54:21.806Z,-1.73
2023-02-27T02:57:04.792Z,-1.75
2023-02-27T02:59:41.158Z,-1.65
2023-02-27T03:02:12.447Z,-1.57
2023-02-27T03:04:38.925Z,-1.55
2023-02-27T03:07:20.521Z,-1.71
2023-02-27T03:10:05.502Z,-1.71
2023-02-27T03:12:33.517Z,-1.75
2023-02-27T03:15:20.958Z,-1.75
2023-02-27T03:18:03.114Z,-1.73
2023-02-27T03:20:35.938Z,-1.64
2023-02-27T03:23:05.078Z,-1.60
2023-02-27T03:25:33.240Z,-1.59
2023-02-27T03:28:05.949Z,-1.62
2023-02-27T03:30:41.395Z,-1.57
2023-02-27T03:33:07.830Z,-1.61
2023-02-27T03:35:43.742Z,-1.72
2023-02-27T03:38:20.869Z,-1.79
2023-02-27T03:41:22.780Z,-1.77
2023-02-27T03:43:56.428Z,-1.75
2023-02-27T03:46:24.381Z,-1.67
2023-02-27T03:48:50.863Z,-1.59
2023-02-27T03:51:19.216Z,-1.51
2023-02-27T03:53:56.014Z,-1.57
2023-02-27T03:56:24.968Z,-1.52
2023-02-27T03:58:52.111Z,-1.52
2023-02-27T04:01:19.318Z,-1.55
2023-02-27T04:03:55.635Z,-1.51
2023-02-27T04:06:40.852Z,-1.39
2023-02-27T04:09:11.177Z,-1.35
2023-02-27T04:11:40.876Z,-1.40
2023-02-27T04:14:10.138Z,-1.40
2023-02-27T04:16:45.991Z,-1.36
2023-02-27T04:19:18.996Z,-1.35
2023-02-27T04:21:54.535Z,-1.39
2023-02-27T04:24:27.181Z,-1.35
2023-02-27T04:26:57.109Z,-1.38
2023-02-27T04:29:30.286Z,-1.45
2023-02-27T04:31:59.580Z,-1.51
2023-02-27T04:34:28.887Z,-1.51
2023-02-27T04:36:55.407Z,-1.43
2023-02-27T04:39:24.723Z,-1.38
2023-02-27T04:41:54.245Z,-1.35
2023-02-27T04:44:22.778Z,-1.39
2023-02-27T04:46:50.544Z,-1.41
2023-02-27T04:49:23.191Z,-1.60
2023-02-27T04:52:00.932Z,-1.55
2023-02-27T04:54:34.671Z,-1.50
2023-02-27T04:57:04.184Z,-1.53
2023-02-27T04:59:32.905Z,-1.57
2023-02-27T05:02:08.947Z,-1.64
2023-02-27T05:04:37.107Z,-1.75
2023-02-27T05:07:05.849Z,-1.71
2023-02-27T05:09:38.666Z,-1.61
2023-02-27T05:12:11.342Z,-1.64
2023-02-27T05:15:00.133Z,-1.72
2023-02-27T05:17:33.027Z,-1.73
2023-02-27T05:20:00.026Z,-1.74
2023-02-27T05:22:42.047Z,-1.85
2023-02-27T05:25:22.653Z,-1.97
2023-02-27T05:28:09.379Z,-1.96
2023-02-27T05:30:38.466Z,-1.92
2023-02-27T05:33:13.667Z,-1.88
2023-02-27T05:35:40.333Z,-1.79
2023-02-27T05:38:06.795Z,-1.78
2023-02-27T05:40:35.504Z,-1.78
2023-02-27T05:43:25.378Z,-1.69
2023-02-27T05:45:56.170Z,-1.58
2023-02-27T05:48:25.843Z,-1.65
2023-02-27T05:50:52.984Z,-1.79
2023-02-27T05:53:21.389Z,-1.78
2023-02-27T05:55:50.152Z,-1.77
2023-02-27T05:58:20.319Z,-1.74
2023-02-27T06:01:00.349Z,-1.71
2023-02-27T06:03:28.418Z,-1.87
2023-02-27T06:05:57.108Z,-1.91
2023-02-27T06:08:24.009Z,-1.98
2023-02-27T06:10:50.644Z,-1.98
2023-02-27T06:13:17.357Z,-1.90
2023-02-27T06:15:44.321Z,-1.89
2023-02-27T06:18:14.993Z,-1.95
2023-02-27T06:20:41.945Z,-1.87
2023-02-27T06:23:09.111Z,-1.77
2023-02-27T06:25:35.595Z,-1.71
2023-02-27T06:28:02.460Z,-1.73
2023-02-27T06:30:29.027Z,-1.72
2023-02-27T06:32:55.520Z,-1.76
2023-02-27T06:35:22.469Z,-1.82
2023-02-27T06:37:48.927Z,-1.77
2023-02-27T06:40:15.469Z,-1.86
2023-02-27T06:42:42.698Z,-1.89
2023-02-27T06:45:09.626Z,-1.77
2023-02-27T06:47:36.122Z,-1.69
2023-02-27T06:50:03.434Z,-1.59
2023-02-27T06:52:29.900Z,-1.84
2023-02-27T06:54:56.368Z,-1.82
2023-02-27T06:57:22.903Z,-1.88
2023-02-27T06:59:49.359Z,-1.95
2023-02-27T07:02:16.818Z,-1.95
2023-02-27T07:04:43.458Z,-1.89
2023-02-27T07:07:32.578Z,-1.93
2023-02-27T07:09:56.582Z,-1.94
2023-02-27T07:12:23.206Z,-2.03
2023-02-27T07:14:49.621Z,-1.91
2023-02-27T07:17:16.078Z,-1.87
2023-02-27T07:19:42.642Z,-1.83
2023-02-27T07:22:12.273Z,-1.84
2023-02-27T07:24:38.732Z,-1.89
2023-02-27T07:27:05.147Z,-1.90
2023-02-27T07:29:31.615Z,-1.88
2023-02-27T07:31:58.323Z,-1.76
2023-02-27T07:34:24.753Z,-1.67
2023-02-27T07:36:51.184Z,-1.69
2023-02-27T07:39:17.662Z,-1.70
2023-02-27T07:41:44.091Z,-1.82
2023-02-27T07:44:11.333Z,-1.77
2023-02-27T07:46:37.819Z,-1.79
2023-02-27T07:49:04.384Z,-1.77
2023-02-27T07:51:30.995Z,-1.86
2023-02-27T07:53:58.478Z,-1.81
2023-02-27T07:56:26.611Z,-1.67
2023-02-27T07:58:53.353Z,-1.68
2023-02-27T08:01:20.075Z,-1.66
2023-02-27T08:03:46.492Z,-1.61
2023-02-27T08:06:12.890Z,-1.54
2023-02-27T08:08:39.453Z,-1.49
2023-02-27T08:11:05.906Z,-1.60
2023-02-27T08:13:58.938Z,-1.62
2023-02-27T08:16:18.918Z,-1.53
2023-02-27T08:18:45.445Z,-1.50
2023-02-27T08:21:11.926Z,-1.53
2023-02-27T08:23:38.434Z,-1.51
2023-02-27T08:26:05.009Z,-1.58
2023-02-27T08:28:31.438Z,-1.54
2023-02-27T08:30:57.930Z,-1.68
2023-02-27T08:33:24.936Z,-1.65
2023-02-27T08:35:51.817Z,-1.65
2023-02-27T08:38:18.262Z,-1.64
2023-02-27T08:40:44.734Z,-1.63
2023-02-27T08:43:11.146Z,-1.64
2023-02-27T08:45:37.648Z,-1.62
2023-02-27T08:48:04.179Z,-1.56
2023-02-27T08:50:30.751Z,-1.50
2023-02-27T08:52:57.207Z,-1.59
2023-02-27T08:55:23.799Z,-1.57
2023-02-27T08:57:50.507Z,-1.55
2023-02-27T09:00:17.806Z,-1.50
2023-02-27T09:02:44.509Z,-1.38
2023-02-27T09:05:11.460Z,-1.33
2023-02-27T09:07:37.945Z,-1.31
2023-02-27T09:10:04.613Z,-1.25
2023-02-27T09:12:31.036Z,-1.20
2023-02-27T09:14:57.459Z,-1.21
2023-02-27T09:17:23.907Z,-1.28
2023-02-27T09:19:51.398Z,-1.24
2023-02-27T09:22:18.672Z,-1.22
2023-02-27T09:24:45.133Z,-1.23
2023-02-27T09:27:11.583Z,-1.14
2023-02-27T09:29:38.042Z,-1.15
2023-02-27T09:32:04.606Z,-1.31
2023-02-27T09:34:31.157Z,-1.35
2023-02-27T09:37:01.073Z,-1.39
2023-02-27T09:39:28.002Z,-1.40
2023-02-27T09:42:17.225Z,-1.48
2023-02-27T09:44:47.671Z,-1.43
2023-02-27T09:47:16.436Z,-1.43
2023-02-27T09:50:03.012Z,-1.34
2023-02-27T09:52:31.223Z,-1.33
2023-02-27T09:54:57.878Z,-1.31
2023-02-27T09:57:44.554Z,-1.29
2023-02-27T10:00:19.416Z,-1.19
2023-02-27T10:03:01.210Z,-1.14
2023-02-27T10:05:42.754Z,-1.10
2023-02-27T10:08:14.699Z,-1.11
2023-02-27T10:11:00.288Z,-1.04
2023-02-27T10:13:36.072Z,-0.87
2023-02-27T10:16:03.579Z,-0.85
2023-02-27T10:18:31.899Z,-0.80
2023-02-27T10:20:58.515Z,-0.89
2023-02-27T10:23:33.837Z,-0.88
2023-02-27T10:26:01.053Z,-0.80
2023-02-27T10:28:27.685Z,-0.85
2023-02-27T10:30:55.983Z,-0.88
2023-02-27T10:33:28.132Z,-0.78
2023-02-27T10:35:55.118Z,-0.76
2023-02-27T10:38:29.373Z,-0.69
2023-02-27T10:40:57.902Z,-0.67
2023-02-27T10:43:24.586Z,-0.62
2023-02-27T10:45:51.073Z,-0.56
2023-02-27T10:48:18.146Z,-0.56
2023-02-27T10:50:46.088Z,-0.60
2023-02-27T10:53:22.811Z,-0.63
2023-02-27T10:56:00.812Z,-0.63
2023-02-27T10:58:29.696Z,-0.52
2023-02-27T11:03:41.394Z,-0.44
2023-02-27T11:06:22.470Z,-0.41
2023-02-27T11:09:07.554Z,-0.34
2023-02-27T11:11:33.978Z,-0.36
2023-02-27T11:14:14.883Z,-0.42
2023-02-27T11:16:56.861Z,-0.41
2023-02-27T11:19:25.055Z,-0.58
2023-02-27T11:22:00.829Z,-0.59
2023-02-27T11:24:29.035Z,-0.66
2023-02-27T11:26:57.695Z,-0.74
2023-02-27T11:29:24.214Z,-0.80
2023-02-27T11:31:53.873Z,-0.71
2023-02-27T11:34:22.492Z,-0.74
2023-02-27T11:36:49.866Z,-0.74
2023-02-27T11:39:27.476Z,-0.71
2023-02-27T11:41:54.904Z,-0.67
2023-02-27T11:44:34.572Z,-0.71
2023-02-27T11:47:16.866Z,-0.71
2023-02-27T11:50:05.365Z,-0.75
2023-02-27T11:52:31.771Z,-0.70
2023-02-27T11:55:00.738Z,-0.66
2023-02-27T11:57:32.653Z,-0.60
2023-02-27T12:00:03.363Z,-0.55
2023-02-27T12:02:46.165Z,-0.52
2023-02-27T12:05:17.994Z,-0.43
2023-02-27T12:07:44.442Z,-0.32
2023-02-27T12:10:10.946Z,-0.33
2023-02-27T12:12:49.686Z,-0.29
2023-02-27T12:15:37.205Z,-0.26
2023-02-27T12:18:08.095Z,-0.18
2023-02-27T12:20:53.106Z,-0.24
2023-02-27T12:23:23.544Z,-0.29
2023-02-27T12:25:56.820Z,-0.26
2023-02-27T12:28:26.448Z,-0.32
2023-02-27T12:31:08.200Z,-0.29
2023-02-27T12:33:40.558Z,-0.19
2023-02-27T12:36:10.480Z,-0.17
2023-02-27T12:38:37.209Z,-0.16
2023-02-27T12:41:27.197Z,-0.14
2023-02-27T12:44:26.267Z,-0.10
2023-02-27T12:47:03.907Z,-0.15
2023-02-27T12:49:42.991Z,-0.21
2023-02-27T12:52:19.269Z,-0.26
2023-02-27T12:54:55.853Z,-0.25
2023-02-27T12:57:30.250Z,-0.18
2023-02-27T13:00:18.513Z,-0.20
2023-02-27T13:02:51.210Z,-0.26
2023-02-27T13:05:26.954Z,-0.27
2023-02-27T13:08:28.752Z,-0.24
2023-02-27T13:11:13.798Z,-0.30
2023-02-27T13:13:44.103Z,-0.25
2023-02-27T13:16:21.830Z,-0.14
2023-02-27T13:18:56.469Z,-0.28
2023-02-27T13:21:32.199Z,-0.25
2023-02-27T13:23:58.812Z,-0.20
2023-02-27T13:26:27.535Z,-0.17
2023-02-27T13:28:54.880Z,-0.13
2023-02-27T13:31:24.447Z,-0.13
2023-02-27T13:33:53.670Z,-0.18
2023-02-27T13:36:43.505Z,-0.18
2023-02-27T13:39:28.657Z,-0.10
2023-02-27T13:41:55.114Z,-0.01
2023-02-27T13:44:21.633Z,-0.03
2023-02-27T13:46:48.104Z,0.02
2023-02-27T13:49:29.598Z,0.02
2023-02-27T13:51:59.518Z,-0.06
2023-02-27T13:54:28.071Z,-0.13
2023-02-27T13:56:54.500Z,-0.17
2023-02-27T13:59:23.945Z,-0.17
2023-02-27T14:01:56.161Z,-0.13
2023-02-27T14:04:25.327Z,-0.11
2023-02-27T14:06:57.116Z,-0.11
2023-02-27T14:09:23.652Z,-0.02
2023-02-27T14:11:54.482Z,0.03
2023-02-27T14:14:37.842Z,-0.02
2023-02-27T14:17:04.535Z,-0.04
2023-02-27T14:19:34.060Z,-0.05
2023-02-27T14:22:24.533Z,-0.07
2023-02-27T14:25:02.425Z,-0.06
2023-02-27T14:27:38.384Z,-0.09
2023-02-27T14:30:07.918Z,-0.14
2023-02-27T14:32:35.447Z,-0.09
2023-02-27T14:35:03.021Z,-0.09
2023-02-27T14:37:30.759Z,-0.04
2023-02-27T14:40:00.732Z,-0.05
2023-02-27T14:42:49.168Z,-0.10
2023-02-27T14:45:24.481Z,-0.13
2023-02-27T14:47:52.001Z,-0.07
2023-02-27T14:50:32.304Z,0.01
2023-02-27T14:52:58.868Z,-0.02
2023-02-27T14:55:30.141Z,-0.15
2023-02-27T14:58:01.504Z,-0.21
2023-02-27T15:00:29.278Z,-0.23
2023-02-27T15:02:55.905Z,-0.24
2023-02-27T15:05:26.482Z,-0.26
2023-02-27T15:07:53.597Z,-0.18
2023-02-27T15:10:25.135Z,-0.18
2023-02-27T15:12:52.438Z,-0.35
2023-02-27T15:15:20.488Z,-0.36
2023-02-27T15:17:48.385Z,-0.34
2023-02-27T15:20:27.557Z,-0.29
2023-02-27T15:22:54.028Z,-0.23
2023-02-27T15:25:31.959Z,-0.11
2023-02-27T15:28:01.433Z,0.02
2023-02-27T15:30:28.000Z,0.07
2023-02-27T15:32:55.912Z,0.16
2023-02-27T15:35:24.919Z,0.19
2023-02-27T15:37:56.358Z,0.22
2023-02-27T15:40:25.871Z,0.12
2023-02-27T15:42:53.415Z,-0.04
2023-02-27T15:45:21.472Z,-0.03
2023-02-27T15:47:48.076Z,0.01
2023-02-27T15:50:17.502Z,0.06
2023-02-27T15:52:50.435Z,0.06
2023-02-27T15:55:21.483Z,0.07
2023-02-27T15:58:01.909Z,0.02
2023-02-27T16:00:30.045Z,-0.21
2023-02-27T16:02:57.689Z,-0.26
2023-02-27T16:05:27.057Z,-0.30
2023-02-27T16:07:53.824Z,-0.41
2023-02-27T16:10:30.839Z,-0.32
2023-02-27T16:12:57.381Z,-0.26
2023-02-27T16:15:31.387Z,-0.11
2023-02-27T16:17:57.889Z,-0.15
2023-02-27T16:20:39.648Z,-0.07
2023-02-27T16:23:06.133Z,-0.06
2023-02-27T16:25:32.868Z,-0.09
2023-02-27T16:27:59.505Z,-0.08
2023-02-27T16:30:26.055Z,-0.06
2023-02-27T16:32:58.722Z,-0.09
2023-02-27T16:35:25.668Z,-0.08
2023-02-27T16:37:53.477Z,-0.11
2023-02-27T16:40:22.600Z,-0.03
2023-02-27T16:42:49.549Z,0.03
2023-02-27T16:45:18.802Z,0.04
2023-02-27T16:47:48.256Z,-0.01
2023-02-27T16:50:18.491Z,-0.03
2023-02-27T16:52:45.142Z,-0.13
2023-02-27T16:55:13.109Z,-0.13
2023-02-27T16:57:39.596Z,0.00
2023-02-27T17:00:08.911Z,0.11
2023-02-27T17:02:35.427Z,0.21
2023-02-27T17:05:02.946Z,0.19
2023-02-27T17:07:30.526Z,0.07
2023-02-27T17:09:57.096Z,0.06
2023-02-27T17:12:23.532Z,0.10
2023-02-27T17:14:49.966Z,0.11
2023-02-27T17:17:16.387Z,0.16
2023-02-27T17:19:42.808Z,0.23
2023-02-27T17:22:09.560Z,0.30
2023-02-27T17:24:36.646Z,0.31
2023-02-27T17:27:03.138Z,0.32
2023-02-27T17:29:29.670Z,0.32
2023-02-27T17:31:57.466Z,0.33
2023-02-27T17:34:24.503Z,0.36
2023-02-27T17:36:50.941Z,0.35
2023-02-27T17:39:17.468Z,0.33
2023-02-27T17:41:44.293Z,0.34
2023-02-27T17:44:11.596Z,0.34
2023-02-27T17:46:38.483Z,0.32
2023-02-27T17:49:05.422Z,0.27
2023-02-27T17:51:32.426Z,0.25
2023-02-27T17:54:03.054Z,0.25
2023-02-27T17:56:30.116Z,0.24
2023-02-27T17:58:56.956Z,0.23
2023-02-27T18:01:25.821Z,0.22
2023-02-27T18:03:54.315Z,0.22
2023-02-27T18:06:21.348Z,0.16
2023-02-27T18:08:48.424Z,0.14
2023-02-27T18:11:16.446Z,0.03
2023-02-27T18:13:43.021Z,-0.08
2023-02-27T18:16:10.728Z,-0.04
2023-02-27T18:18:38.589Z,0.03
2023-02-27T18:21:10.138Z,0.08
2023-02-27T18:23:37.091Z,0.10
2023-02-27T18:26:04.316Z,0.13
2023-02-27T18:28:30.737Z,0.16
2023-02-27T18:30:57.326Z,0.13
2023-02-27T18:33:24.266Z,0.10
2023-02-27T18:35:51.119Z,0.14
2023-02-27T18:38:17.775Z,0.14
2023-02-27T18:40:44.356Z,0.15
2023-02-27T18:43:11.473Z,0.11
2023-02-27T18:45:38.305Z,0.15
2023-02-27T18:48:04.930Z,0.19
2023-02-27T18:50:31.409Z,0.16
2023-02-27T18:52:59.205Z,0.15
2023-02-27T18:55:25.871Z,0.10
2023-02-27T18:57:52.343Z,0.07
2023-02-27T19:00:19.397Z,0.05
2023-02-27T19:02:45.944Z,0.04
2023-02-27T19:05:14.570Z,0.08
2023-02-27T19:07:41.498Z,0.10
2023-02-27T19:10:08.729Z,0.09
2023-02-27T19:12:35.176Z,0.08
2023-02-27T19:15:01.619Z,0.06
2023-02-27T19:17:28.251Z,0.06
2023-02-27T19:19:54.806Z,0.01
2023-02-27T19:22:21.289Z,-0.14
2023-02-27T19:24:48.078Z,-0.21
2023-02-27T19:27:17.119Z,-0.28
2023-02-27T19:29:43.690Z,-0.28
2023-02-27T19:32:10.257Z,-0.30
2023-02-27T19:34:36.748Z,-0.37
2023-02-27T19:37:03.465Z,-0.48
2023-02-27T19:39:29.909Z,-0.43
2023-02-27T19:41:56.682Z,-0.39
2023-02-27T19:44:23.264Z,-0.37
2023-02-27T19:46:52.122Z,-0.40
2023-02-27T19:49:19.253Z,-0.41
2023-02-27T19:51:45.711Z,-0.34
2023-02-27T19:54:12.868Z,-0.36
2023-02-27T19:56:39.404Z,-0.33
2023-02-27T19:59:05.993Z,-0.40
2023-02-27T20:01:33.795Z,-0.43
2023-02-27T20:04:01.450Z,-0.46
2023-02-27T20:06:29.639Z,-0.53
2023-02-27T20:08:57.292Z,-0.46
2023-02-27T20:11:23.847Z,-0.42
2023-02-27T20:13:51.539Z,-0.37
2023-02-27T20:16:19.261Z,-0.34
2023-02-27T20:18:45.780Z,-0.33
2023-02-27T20:23:57.995Z,-0.38
2023-02-27T20:26:26.524Z,-0.49
2023-02-27T20:28:54.054Z,-0.44
2023-02-27T20:31:22.087Z,-0.40
2023-02-27T20:33:49.196Z,-0.43
2023-02-27T20:36:16.161Z,-0.49
2023-02-27T20:38:42.673Z,-0.55
2023-02-27T20:43:52.524Z,-0.68
2023-02-27T20:46:21.754Z,-0.73
2023-02-27T20:48:48.233Z,-0.73
2023-02-27T20:51:16.359Z,-0.80
2023-02-27T20:53:44.052Z,-0.87
2023-02-27T20:56:11.159Z,-0.94
2023-02-27T20:58:38.322Z,-0.98
2023-02-27T21:01:09.254Z,-0.98
2023-02-27T21:03:39.017Z,-1.05
2023-02-27T21:06:06.483Z,-1.12
2023-02-27T21:08:34.534Z,-1.15
2023-02-27T21:11:06.122Z,-1.15
2023-02-27T21:13:32.806Z,-1.20
2023-02-27T21:16:04.126Z,-1.24
2023-02-27T21:18:30.923Z,-1.30
2023-02-27T21:21:00.190Z,-1.36
2023-02-27T21:23:26.726Z,-1.40
2023-02-27T21:25:53.685Z,-1.43
2023-02-27T21:28:20.284Z,-1.47
2023-02-27T21:30:46.741Z,-1.49
2023-02-27T21:33:13.195Z,-1.52
2023-02-27T21:35:44.718Z,-1.57
2023-02-27T21:38:11.305Z,-1.58
2023-02-27T21:40:37.731Z,-1.66
2023-02-27T21:43:04.166Z,-1.69
2023-02-27T21:45:30.579Z,-1.77
2023-02-27T21:47:57.020Z,-1.76
2023-02-27T21:50:23.452Z,-1.71
2023-02-27T21:52:50.012Z,-1.66
2023-02-27T21:55:16.605Z,-1.67
2023-02-27T21:57:43.100Z,-1.71
2023-02-27T22:00:13.605Z,-1.78
2023-02-27T22:02:40.165Z,-1.87
2023-02-27T22:05:06.964Z,-1.90
2023-02-27T22:07:33.440Z,-1.94
2023-02-27T22:09:59.954Z,-2.02
2023-02-27T22:12:27.069Z,-2.02
2023-02-27T22:14:53.501Z,-2.04
2023-02-27T22:17:20.286Z,-2.08
2023-02-27T22:19:47.895Z,-2.09
2023-02-27T22:22:14.385Z,-2.12
2023-02-27T22:24:42.073Z,-2.16
2023-02-27T22:27:09.333Z,-2.23
2023-02-27T22:29:36.570Z,-2.27
2023-02-27T22:32:03.080Z,-2.31
2023-02-27T22:34:29.560Z,-2.35
2023-02-27T22:36:56.268Z,-2.31
2023-02-27T22:39:22.739Z,-2.25
2023-02-27T22:41:49.170Z,-2.22
2023-02-27T22:44:16.174Z,-2.27
2023-02-27T22:46:44.583Z,-2.28
2023-02-27T22:49:15.500Z,-2.32
2023-02-27T22:51:42.447Z,-2.31
2023-02-27T22:54:10.115Z,-2.30
2023-02-27T22:56:36.836Z,-2.31
2023-02-27T22:59:03.673Z,-2.40
2023-02-27T23:01:31.873Z,-2.46
2023-02-27T23:04:00.119Z,-2.56
2023-02-27T23:06:28.518Z,-2.61
2023-02-27T23:08:55.288Z,-2.65
2023-02-27T23:11:21.828Z,-2.67
2023-02-27T23:13:48.398Z,-2.71
2023-02-27T23:16:15.011Z,-2.74
2023-02-27T23:18:42.571Z,-2.77
2023-02-27T23:21:09.440Z,-2.73
2023-02-27T23:23:38.482Z,-2.68
2023-02-27T23:26:06.338Z,-2.65
2023-02-27T23:28:33.348Z,-2.60
2023-02-27T23:30:59.867Z,-2.65
2023-02-27T23:33:27.237Z,-2.73
2023-02-27T23:35:53.692Z,-2.79
2023-02-27T23:38:20.290Z,-2.84
2023-02-27T23:40:46.734Z,-2.83
2023-02-27T23:43:13.870Z,-2.83
2023-02-27T23:45:40.738Z,-2.87
2023-02-27T23:48:07.217Z,-2.86
2023-02-27T23:50:35.523Z,-2.89
2023-02-27T23:53:02.090Z,-2.83
2023-02-27T23:55:29.892Z,-2.85
2023-02-27T23:57:57.265Z,-2.92
